WetterOnline ( https://www.wetteronline.de )

Wetter aktuell Steinach

Aktuelles Wetter: Straubing (360m)

6-stündlich | Neueste Meldungen
Ortszeit Temperatur Wetter
Di, 17.05. 2:00 16.1° C leichter Regen
Mo, 16.05. 20:00 16.7° C leichter Regen
Mo, 16.05. 14:00 21.6° C bedeckt
Mo, 16.05. 8:00 15.7° C leicht bewölkt
Mo, 16.05. 2:00 13.3° C wolkig
So, 15.05. 20:00 22.0° C leicht bewölkt
So, 15.05. 14:00 23.1° C fast wolkenlos
So, 15.05. 8:00 13.1° C fast wolkenlos
Ortszeit Temperatur Wetter
Di, 17.05. 2:30 16.1° C leichter Regen
Di, 17.05. 2:20 16.1° C leichter Regen
Di, 17.05. 2:10 16.1° C bedeckt
Di, 17.05. 2:00 16.1° C leichter Regen
Di, 17.05. 1:50 16.1° C leichter Regen
Di, 17.05. 1:40 16.1° C leichter Regen
Di, 17.05. 1:30 16.1° C leichter Regen
Di, 17.05. 1:00 16.5° C bewölkt
Di, 17.05. 0:30 16.2° C bewölkt
Di, 17.05. 0:00 15.8° C wolkig
Mo, 16.05. 23:30 16.2° C bewölkt
Ortszeit Relative Feuchte Sichtweite
Di, 17.05. 2:00 94% 21 km
Mo, 16.05. 20:00 89% 30 km
Mo, 16.05. 14:00 56% 40 km
Mo, 16.05. 8:00 71% 35 km
Mo, 16.05. 2:00 76% 50 km
So, 15.05. 20:00 42% 50 km
So, 15.05. 14:00 36% 45 km
So, 15.05. 8:00 73% 45 km
Ortszeit Relative Feuchte Sichtweite
Di, 17.05. 2:30 92% 11 km
Di, 17.05. 2:20 92% -
Di, 17.05. 2:10 93% -
Di, 17.05. 2:00 94% 21 km
Di, 17.05. 1:50 94% -
Di, 17.05. 1:40 94% -
Di, 17.05. 1:30 94% 9 km
Di, 17.05. 1:00 89% 30 km
Di, 17.05. 0:30 89% 35 km
Di, 17.05. 0:00 90% 35 km
Mo, 16.05. 23:30 87% 40 km
Ortszeit Niederschlagsmenge Niederschlagsart
Di, 17.05. 2:00 2 l/m2 in 6 Std. Regen
Mo, 16.05. 20:00 2 l/m2 in 12 Std. Regen
Mo, 16.05. 14:00 0.1 l/m2 in 6 Std. Regen
Mo, 16.05. 8:00 0.0 l/m2 in 12 Std. -
Mo, 16.05. 2:00 0.0 l/m2 in 6 Std. -
So, 15.05. 20:00 0.0 l/m2 in 12 Std. -
So, 15.05. 14:00 0.0 l/m2 in 6 Std. -
So, 15.05. 8:00 0.0 l/m2 in 12 Std. -
Ortszeit Niederschlagsmenge Niederschlagsart
Di, 17.05. 2:30 0.1 l/m2 in 1 Std. -
Di, 17.05. 2:20 keine Meldung -
Di, 17.05. 2:10 keine Meldung -
Di, 17.05. 2:00 2.0 l/m2 in 1 Std. Regen
Di, 17.05. 1:50 keine Meldung -
Di, 17.05. 1:40 keine Meldung -
Di, 17.05. 1:30 1.5 l/m2 in 1 Std. -
Di, 17.05. 1:00 0.0 l/m2 in 1 Std. -
Di, 17.05. 0:30 0.0 l/m2 in 1 Std. -
Di, 17.05. 0:00 0.0 l/m2 in 1 Std. -
Mo, 16.05. 23:30 0.0 l/m2 in 1 Std. -
Ortszeit Stärke Spitze Richtung
km/h Bft. km/h Grad Sektor
Di, 17.05. 2:00 7 2 29 250° W
Mo, 16.05. 20:00 6 1 33 250° W
Mo, 16.05. 14:00 14 3 25 250° W
Mo, 16.05. 8:00 4 1 11 90° O
Mo, 16.05. 2:00 0 0 14 - -
So, 15.05. 20:00 6 1 22 40° NO
So, 15.05. 14:00 7 2 18 30° NO
So, 15.05. 8:00 4 1 11 40° NO
Ortszeit Stärke Spitze Richtung
km/h Bft. km/h Grad Sektor
Di, 17.05. 2:30 11 2 18 240° SW
Di, 17.05. 2:20 11 2 - 240° SW
Di, 17.05. 2:10 9 2 - 230° SW
Di, 17.05. 2:00 7 2 29 250° W
Di, 17.05. 1:50 7 2 - 250° W
Di, 17.05. 1:40 11 2 - 250° W
Di, 17.05. 1:30 11 2 29 240° SW
Di, 17.05. 1:00 13 3 22 230° SW
Di, 17.05. 0:30 11 2 17 220° SW
Di, 17.05. 0:00 9 2 19 210° SW
Mo, 16.05. 23:30 11 2 18 220° SW
Ortszeit Untergrenze Bedeckung Gattung
total tief tief mittel hoch
Di, 17.05. 2:00 210 m 8/8 8/8 - - -
Mo, 16.05. 20:00 30 m 8/8 8/8 - - -
Mo, 16.05. 14:00 2700 m 8/8 8/8 - - -
Mo, 16.05. 8:00 7500 m 8/8 0/8 - - -
Mo, 16.05. 2:00 9000 m 8/8 0/8 - - -
So, 15.05. 20:00 8700 m 6/8 0/8 - - -
So, 15.05. 14:00 9000 m 1/8 0/8 - - -
So, 15.05. 8:00 9000 m 1/8 0/8 - - -
Ortszeit Bedeckungsgrad in Achtel und Wolkenuntergrenze
Di, 17.05. 2:30 2(660m) 7(1800m) 8(2400m)
Di, 17.05. 2:20 2(660m) 7(1800m) 8(2400m)
Di, 17.05. 2:10 8
Di, 17.05. 2:00 1(210m) 7(1020m) 8(1440m)
Di, 17.05. 1:50 1(210m) 7(1020m) 8(1440m)
Di, 17.05. 1:40 8
Di, 17.05. 1:30 3(60m) 7(1500m) 8(1800m)
Di, 17.05. 1:00 4(840m) 7(1800m) 8(7800m)
Di, 17.05. 0:30 6(1020m) 8(7800m) 8(10500m)
Di, 17.05. 0:00 2(1800m) 8(7500m) 8(10500m)
Mo, 16.05. 23:30 5(1800m) 8(4500m) 8(6900m)
Ortszeit Luftdruck NN (hPa) Tendenz (hPa in 3 Std.)
Di, 17.05. 2:00 1020 - 0,1
Mo, 16.05. 20:00 1018 + 0,6
Mo, 16.05. 14:00 1018 0,0
Mo, 16.05. 8:00 1019 + 1,2
Mo, 16.05. 2:00 1018 + 0,3
So, 15.05. 20:00 1016 - 0,8
So, 15.05. 14:00 1018 - 1,2
So, 15.05. 8:00 1021 + 0,7
Ortszeit Luftdruck NN (hPa) Tendenz (hPa in 3 Std.)
Di, 17.05. 2:30 1020 - 0,2
Di, 17.05. 2:20 1020 keine Meldung
Di, 17.05. 2:10 1020 keine Meldung
Di, 17.05. 2:00 1020 - 0,1
Di, 17.05. 1:50 1020 keine Meldung
Di, 17.05. 1:40 1020 keine Meldung
Di, 17.05. 1:30 1020 0,0
Di, 17.05. 1:00 1020 0,0
Di, 17.05. 0:30 1020 + 0,2
Di, 17.05. 0:00 1020 + 0,5
Mo, 16.05. 23:30 1020 + 0,9
Ortszeit Schneehöhe (cm)
Di, 17.05. 2:00 0
Mo, 16.05. 20:00 0
Mo, 16.05. 14:00 0
Mo, 16.05. 8:00 0
Mo, 16.05. 2:00 0
So, 15.05. 20:00 0
So, 15.05. 14:00 0
So, 15.05. 8:00 0
Ortszeit Schneehöhe (cm)
Di, 17.05. 2:30 0
Di, 17.05. 2:20 0
Di, 17.05. 2:10 0
Di, 17.05. 2:00 0
Di, 17.05. 1:50 0
Di, 17.05. 1:40 0
Di, 17.05. 1:30 0
Di, 17.05. 1:00 0
Di, 17.05. 0:30 0
Di, 17.05. 0:00 0
Mo, 16.05. 23:30 0
Link zu dieser Seite / Seite empfehlen

Das Wetter in ...